Time;durP1;ratioP1;P1;durP2;ratioP2;P2;SDS_P1;SDS_P2;PMS_P1;PMS_P2;Temp;Humidity;BMP_temperature;BMP_pressure;BME280_temperature;BME280_humidity;BME280_pressure;Samples;Min_cycle;Max_cycle;Signal;HPM_P1;HPM_P2
2023/06/09 00:00:11;;;;;;;10.23;5.30;;;16.60;99.90;;;;;;5090406;28;20249;-57
2023/06/09 00:02:40;;;;;;;13.53;5.93;;;16.40;99.90;;;;;;5091802;28;20278;-57
2023/06/09 00:05:09;;;;;;;10.30;5.07;;;16.30;99.90;;;;;;5095239;28;20264;-58
2023/06/09 00:07:37;;;;;;;12.83;4.80;;;16.10;99.90;;;;;;5093952;28;20674;-57
2023/06/09 00:10:07;;;;;;;14.97;5.20;;;16.00;99.90;;;;;;5094163;28;20693;-57
2023/06/09 00:12:35;;;;;;;11.20;4.80;;;16.10;99.90;;;;;;5093893;28;20717;-57
2023/06/09 00:15:04;;;;;;;6.70;3.77;;;16.10;99.90;;;;;;5084871;28;20298;-57
2023/06/09 00:17:33;;;;;;;8.23;4.00;;;16.10;99.90;;;;;;5097175;28;20246;-57
2023/06/09 00:20:02;;;;;;;10.20;4.77;;;16.50;99.90;;;;;;5061734;28;20219;-58
2023/06/09 00:22:31;;;;;;;11.73;5.20;;;16.20;99.90;;;;;;5053383;28;20234;-57
2023/06/09 00:24:59;;;;;;;12.47;5.03;;;16.00;99.90;;;;;;5053605;28;20230;-57
2023/06/09 00:27:30;;;;;;;9.60;4.23;;;15.90;99.90;;;;;;5053439;28;20246;-57
2023/06/09 00:29:58;;;;;;;5.97;4.00;;;16.00;99.90;;;;;;5053518;28;20790;-58
2023/06/09 00:32:29;;;;;;;9.63;4.67;;;16.00;99.90;;;;;;5050362;28;20324;-57
2023/06/09 00:34:57;;;;;;;10.97;5.13;;;15.90;99.90;;;;;;5053313;28;20220;-57
2023/06/09 00:37:25;;;;;;;11.30;4.87;;;15.80;99.90;;;;;;5053241;28;20590;-57
2023/06/09 00:39:54;;;;;;;11.00;5.00;;;15.70;99.90;;;;;;5053560;28;20307;-57
2023/06/09 00:42:22;;;;;;;8.67;4.87;;;15.60;99.90;;;;;;5053115;28;20679;-58
2023/06/09 00:44:51;;;;;;;11.10;4.50;;;15.50;99.90;;;;;;5053362;28;20720;-57
2023/06/09 00:47:22;;;;;;;12.57;4.57;;;15.50;99.90;;;;;;5053115;28;20442;-57
2023/06/09 00:49:50;;;;;;;9.83;4.07;;;15.70;99.90;;;;;;5054931;28;20235;-57
2023/06/09 00:52:19;;;;;;;8.03;4.23;;;15.80;99.90;;;;;;5053151;28;20299;-57
2023/06/09 00:54:48;;;;;;;8.90;4.57;;;15.90;99.90;;;;;;5053043;28;20216;-57
2023/06/09 00:57:18;;;;;;;10.40;4.73;;;15.70;99.90;;;;;;5052080;28;20725;-57
2023/06/09 00:59:46;;;;;;;8.90;4.90;;;15.50;99.90;;;;;;5052975;28;20630;-57
2023/06/09 01:02:15;;;;;;;12.30;5.10;;;15.40;99.90;;;;;;5045411;28;20228;-57
2023/06/09 01:04:49;;;;;;;9.73;5.07;;;15.20;99.90;;;;;;5051692;28;20332;-57
2023/06/09 01:07:28;;;;;;;8.83;4.83;;;15.20;99.90;;;;;;5052068;28;20303;-58
2023/06/09 01:10:00;;;;;;;7.23;4.33;;;15.10;99.90;;;;;;5047952;28;20303;-58
2023/06/09 01:12:39;;;;;;;9.87;4.90;;;15.20;99.90;;;;;;5052578;28;20741;-57
2023/06/09 01:15:12;;;;;;;11.23;5.40;;;15.20;99.90;;;;;;5052856;28;20216;-57
2023/06/09 01:17:43;;;;;;;11.60;4.83;;;15.20;99.90;;;;;;5056054;28;20298;-58
2023/06/09 01:20:15;;;;;;;11.03;4.87;;;15.50;99.90;;;;;;5092565;28;20276;-58
2023/06/09 01:22:50;;;;;;;11.87;5.67;;;15.60;99.90;;;;;;5071264;28;20238;-57
2023/06/09 01:25:34;;;;;;;12.23;5.10;;;15.60;99.90;;;;;;5083027;28;20240;-57
2023/06/09 01:28:07;;;;;;;13.57;5.90;;;15.70;99.90;;;;;;5093002;28;20716;-56
2023/06/09 01:30:40;;;;;;;8.23;4.93;;;15.50;99.90;;;;;;5082930;28;20753;-57
2023/06/09 01:33:12;;;;;;;8.93;5.40;;;15.60;99.90;;;;;;5089503;28;20246;-57
2023/06/09 01:35:41;;;;;;;9.97;5.17;;;15.90;99.90;;;;;;5092553;28;20555;-58
2023/06/09 01:38:09;;;;;;;15.47;6.10;;;15.90;99.90;;;;;;5092831;28;20273;-57
2023/06/09 01:40:39;;;;;;;9.50;5.23;;;15.50;99.90;;;;;;5092412;28;20238;-58
2023/06/09 01:43:07;;;;;;;10.57;5.73;;;15.40;99.90;;;;;;5078827;28;20214;-57
2023/06/09 01:45:37;;;;;;;14.83;6.50;;;15.20;99.90;;;;;;5081676;28;20222;-58
2023/06/09 01:48:15;;;;;;;13.17;6.47;;;15.10;99.90;;;;;;5072167;28;20228;-58
2023/06/09 01:50:55;;;;;;;11.20;5.80;;;14.90;99.90;;;;;;5077082;28;20236;-58
2023/06/09 01:53:27;;;;;;;10.13;6.03;;;14.80;99.90;;;;;;5091842;28;20305;-57
2023/06/09 01:56:05;;;;;;;9.70;5.50;;;14.70;99.90;;;;;;5092122;28;20616;-57
2023/06/09 01:58:38;;;;;;;12.47;6.00;;;14.60;99.90;;;;;;5078480;28;20325;-57
2023/06/09 02:01:07;;;;;;;12.17;6.37;;;14.50;99.90;;;;;;5081115;28;20226;-57
2023/06/09 02:03:40;;;;;;;11.23;5.80;;;14.50;99.90;;;;;;5069958;28;20219;-57
2023/06/09 02:06:11;;;;;;;11.50;5.90;;;14.40;99.90;;;;;;5087530;28;20215;-57
2023/06/09 02:08:39;;;;;;;11.10;5.63;;;14.40;99.90;;;;;;5092145;28;20218;-57
2023/06/09 02:11:10;;;;;;;9.70;5.80;;;14.30;99.90;;;;;;5082476;28;20218;-57
2023/06/09 02:13:39;;;;;;;8.47;5.33;;;14.30;99.90;;;;;;5090470;28;20211;-57
2023/06/09 02:16:07;;;;;;;8.77;5.10;;;14.20;99.90;;;;;;5089887;28;20226;-57
2023/06/09 02:18:36;;;;;;;7.73;5.30;;;14.20;99.90;;;;;;5076591;28;20258;-57
2023/06/09 02:21:04;;;;;;;10.13;5.60;;;14.10;99.90;;;;;;5078179;28;20227;-57
2023/06/09 02:23:33;;;;;;;8.03;4.73;;;14.30;99.90;;;;;;5095304;28;20219;-57
2023/06/09 02:26:01;;;;;;;9.57;5.77;;;14.50;99.90;;;;;;5096089;28;20292;-57
2023/06/09 02:28:30;;;;;;;9.67;5.40;;;14.40;99.90;;;;;;5095881;28;20664;-57
2023/06/09 02:30:58;;;;;;;9.73;5.80;;;14.30;99.90;;;;;;5080540;28;20230;-57
2023/06/09 02:33:27;;;;;;;9.17;4.70;;;14.50;99.90;;;;;;5092093;28;20210;-57
2023/06/09 02:35:55;;;;;;;9.33;5.37;;;14.80;99.90;;;;;;5095728;28;20275;-57
2023/06/09 02:38:24;;;;;;;11.83;6.03;;;14.70;99.90;;;;;;5077648;28;20254;-57
2023/06/09 02:40:52;;;;;;;10.83;6.23;;;14.80;99.90;;;;;;5077797;28;20234;-57
2023/06/09 02:43:20;;;;;;;11.33;6.57;;;14.80;99.90;;;;;;5080229;28;20769;-57
2023/06/09 02:45:50;;;;;;;13.20;6.97;;;14.50;99.90;;;;;;5095615;28;20305;-57
2023/06/09 02:48:18;;;;;;;12.97;6.23;;;14.30;99.90;;;;;;5083445;28;20226;-56
2023/06/09 02:50:46;;;;;;;10.53;6.30;;;14.50;99.90;;;;;;5080485;28;20226;-57
2023/06/09 02:53:15;;;;;;;10.50;6.47;;;14.70;99.90;;;;;;5076981;28;20320;-57
2023/06/09 02:55:44;;;;;;;10.50;6.60;;;14.50;99.90;;;;;;5095348;28;20222;-57
2023/06/09 02:58:16;;;;;;;12.80;6.80;;;14.30;99.90;;;;;;5094626;28;20229;-57
2023/06/09 03:00:50;;;;;;;11.87;6.57;;;14.20;99.90;;;;;;5094236;28;20234;-57
2023/06/09 03:03:19;;;;;;;10.90;6.60;;;14.20;99.90;;;;;;5072178;28;20223;-56
2023/06/09 03:05:49;;;;;;;11.43;6.00;;;14.10;99.90;;;;;;5083274;28;20234;-57
2023/06/09 03:08:19;;;;;;;9.33;6.40;;;14.00;99.90;;;;;;5076776;28;20223;-57
2023/06/09 03:10:47;;;;;;;10.87;6.47;;;13.90;99.90;;;;;;5095245;28;20697;-58
2023/06/09 03:13:18;;;;;;;10.73;6.03;;;13.80;99.90;;;;;;5075393;28;20709;-57
2023/06/09 03:15:52;;;;;;;7.33;5.27;;;13.80;99.90;;;;;;5076788;28;20313;-57
2023/06/09 03:18:21;;;;;;;9.73;5.80;;;13.80;99.90;;;;;;5091818;28;20639;-57
2023/06/09 03:20:50;;;;;;;7.70;5.57;;;13.70;99.90;;;;;;5056933;28;20586;-57
2023/06/09 03:23:21;;;;;;;7.23;5.07;;;13.70;99.90;;;;;;5066529;28;20250;-56
2023/06/09 03:25:51;;;;;;;8.20;5.00;;;13.80;99.90;;;;;;5085252;28;20309;-57
2023/06/09 03:28:21;;;;;;;9.90;4.57;;;14.10;99.90;;;;;;5085093;28;20249;-57
2023/06/09 03:30:50;;;;;;;8.27;5.60;;;14.20;99.90;;;;;;5084699;28;20750;-57
2023/06/09 03:33:19;;;;;;;10.73;5.67;;;14.20;99.90;;;;;;5075586;28;20861;-57
2023/06/09 03:35:49;;;;;;;10.83;5.73;;;14.20;99.90;;;;;;5082810;28;20226;-57
2023/06/09 03:38:18;;;;;;;9.93;6.40;;;14.20;99.90;;;;;;5076628;28;20226;-57
2023/06/09 03:40:46;;;;;;;13.27;7.03;;;14.10;99.90;;;;;;5076505;28;20225;-57
2023/06/09 03:43:16;;;;;;;9.90;5.93;;;14.00;99.90;;;;;;5092314;28;20704;-57
2023/06/09 03:45:44;;;;;;;10.67;6.10;;;14.00;99.90;;;;;;5084751;28;20262;-57
2023/06/09 03:48:16;;;;;;;8.43;4.93;;;14.10;99.90;;;;;;5079933;28;20332;-57
2023/06/09 03:50:44;;;;;;;11.97;5.50;;;14.60;99.90;;;;;;5074271;28;20233;-57
2023/06/09 03:53:13;;;;;;;10.37;5.30;;;14.70;99.90;;;;;;5075923;28;20250;-57
2023/06/09 03:55:42;;;;;;;10.93;6.27;;;15.00;99.90;;;;;;5076908;28;20218;-57
2023/06/09 03:58:12;;;;;;;12.47;6.23;;;14.90;99.90;;;;;;5071082;28;20218;-57
2023/06/09 04:00:42;;;;;;;11.90;6.33;;;14.60;99.90;;;;;;5075842;28;20246;-57
2023/06/09 04:03:10;;;;;;;14.43;6.80;;;14.50;99.90;;;;;;5072830;28;20214;-57
2023/06/09 04:05:40;;;;;;;10.77;5.57;;;14.50;99.90;;;;;;5075541;28;20219;-57
2023/06/09 04:08:08;;;;;;;10.53;6.47;;;14.60;99.90;;;;;;5075814;28;20743;-57
2023/06/09 04:10:36;;;;;;;11.43;6.90;;;14.90;99.90;;;;;;5093559;28;20222;-57
2023/06/09 04:13:04;;;;;;;12.00;6.33;;;14.90;99.90;;;;;;5081656;28;20222;-57
2023/06/09 04:15:32;;;;;;;10.00;5.97;;;14.90;99.90;;;;;;5075544;28;20223;-58
2023/06/09 04:18:03;;;;;;;11.63;5.73;;;14.90;99.90;;;;;;5064584;28;20238;-57
2023/06/09 04:20:35;;;;;;;12.20;6.20;;;15.00;99.90;;;;;;5092191;28;20217;-58
2023/06/09 04:23:08;;;;;;;9.30;6.13;;;15.10;99.90;;;;;;5076587;28;20223;-57
2023/06/09 04:25:40;;;;;;;12.37;6.50;;;15.20;99.90;;;;;;5081430;28;20567;-56
2023/06/09 04:28:12;;;;;;;14.83;7.40;;;15.30;99.90;;;;;;5077500;28;20640;-57
2023/06/09 04:30:41;;;;;;;14.10;7.03;;;15.30;99.90;;;;;;5081150;28;20681;-56
2023/06/09 04:33:12;;;;;;;11.63;6.97;;;15.40;99.90;;;;;;5071079;28;20754;-57
2023/06/09 04:35:43;;;;;;;10.97;6.40;;;15.60;99.90;;;;;;5077357;28;20689;-58
2023/06/09 04:38:16;;;;;;;11.07;6.00;;;15.70;99.90;;;;;;5076828;28;20280;-57
2023/06/09 04:40:45;;;;;;;17.83;7.70;;;15.90;99.90;;;;;;5083722;28;20594;-58
2023/06/09 04:43:16;;;;;;;11.00;6.57;;;16.10;99.90;;;;;;5091649;28;20218;-58
2023/06/09 04:45:44;;;;;;;12.60;6.83;;;16.20;99.90;;;;;;5070496;28;20284;-58
2023/06/09 04:48:17;;;;;;;13.40;7.43;;;16.40;99.90;;;;;;5069363;28;20218;-58
2023/06/09 04:50:47;;;;;;;16.10;7.50;;;16.50;99.90;;;;;;5080947;28;20716;-58
2023/06/09 04:53:19;;;;;;;11.97;6.23;;;16.80;99.90;;;;;;5071842;28;20230;-57
2023/06/09 04:55:53;;;;;;;13.10;6.17;;;16.80;99.90;;;;;;5065779;28;20339;-58
2023/06/09 04:58:25;;;;;;;10.13;5.23;;;16.90;99.90;;;;;;5074839;28;20230;-57
2023/06/09 05:00:55;;;;;;;11.37;6.03;;;16.90;99.90;;;;;;5093262;28;20237;-58
2023/06/09 05:03:25;;;;;;;12.60;5.93;;;17.10;99.90;;;;;;5092516;28;20214;-58
2023/06/09 05:05:53;;;;;;;10.87;5.57;;;17.30;99.90;;;;;;5084627;28;20303;-58
2023/06/09 05:08:24;;;;;;;17.63;7.17;;;17.40;99.90;;;;;;5073676;28;20227;-58
2023/06/09 05:10:53;;;;;;;10.40;6.07;;;17.50;99.90;;;;;;5083227;28;20230;-58
2023/06/09 05:13:22;;;;;;;9.93;5.73;;;17.50;99.90;;;;;;5077036;28;20705;-58
2023/06/09 05:15:53;;;;;;;12.87;6.40;;;17.60;99.90;;;;;;5067507;28;20258;-58
2023/06/09 05:18:22;;;;;;;12.03;6.07;;;17.80;99.90;;;;;;5060473;28;20264;-58
2023/06/09 05:20:50;;;;;;;10.00;5.97;;;18.00;99.90;;;;;;5073185;28;20246;-58
2023/06/09 05:23:18;;;;;;;10.77;5.70;;;18.00;99.90;;;;;;5089080;28;20207;-58
2023/06/09 05:25:48;;;;;;;11.93;5.20;;;18.20;99.90;;;;;;5082792;28;20227;-58
2023/06/09 05:28:16;;;;;;;11.70;6.10;;;18.40;99.90;;;;;;5092661;28;20226;-59
2023/06/09 05:30:44;;;;;;;11.80;6.07;;;18.50;99.90;;;;;;5074248;28;20243;-58
2023/06/09 05:33:12;;;;;;;8.77;5.33;;;18.50;99.90;;;;;;5089125;28;20227;-58
2023/06/09 05:35:40;;;;;;;9.80;5.40;;;18.60;99.90;;;;;;5091540;28;20250;-56
2023/06/09 05:38:10;;;;;;;10.07;5.97;;;18.60;99.90;;;;;;5074160;28;20235;-58
2023/06/09 05:40:38;;;;;;;12.30;6.20;;;18.80;99.90;;;;;;5092130;28;20220;-58
2023/06/09 05:43:08;;;;;;;10.13;5.90;;;18.90;99.90;;;;;;5090186;28;20216;-57
2023/06/09 05:45:35;;;;;;;10.90;6.10;;;19.20;99.90;;;;;;5088595;28;20230;-57
2023/06/09 05:48:04;;;;;;;10.03;6.30;;;19.30;99.90;;;;;;5089264;28;20224;-58
2023/06/09 05:50:32;;;;;;;11.40;6.13;;;19.40;99.90;;;;;;5088610;28;20679;-58
2023/06/09 05:53:00;;;;;;;9.97;5.70;;;19.50;99.90;;;;;;5089592;28;20250;-58
2023/06/09 05:55:28;;;;;;;9.43;5.40;;;19.70;99.90;;;;;;5090734;28;20229;-58
2023/06/09 05:58:00;;;;;;;8.03;5.23;;;19.80;99.90;;;;;;5095733;28;20229;-58
2023/06/09 06:00:30;;;;;;;8.67;5.40;;;19.90;99.90;;;;;;5095433;28;20249;-57
2023/06/09 06:03:00;;;;;;;8.03;5.20;;;20.10;99.90;;;;;;5083815;28;20323;-58
2023/06/09 06:05:28;;;;;;;9.93;5.10;;;20.40;99.90;;;;;;5086706;28;20228;-58
2023/06/09 06:07:58;;;;;;;9.53;5.23;;;20.50;99.90;;;;;;5095530;28;20773;-58
2023/06/09 06:10:27;;;;;;;10.03;5.33;;;20.70;99.90;;;;;;5095942;28;20222;-57
2023/06/09 06:12:58;;;;;;;9.40;4.80;;;21.00;99.90;;;;;;5094711;28;20240;-58
2023/06/09 06:15:26;;;;;;;8.77;4.70;;;20.80;99.90;;;;;;5094710;28;20249;-58
2023/06/09 06:17:55;;;;;;;11.00;5.20;;;20.90;99.90;;;;;;5096233;28;20753;-58
2023/06/09 06:20:26;;;;;;;8.23;4.67;;;21.10;99.90;;;;;;5080696;28;20229;-58
2023/06/09 06:22:54;;;;;;;9.67;5.17;;;21.40;99.90;;;;;;5058337;28;20242;-58
2023/06/09 06:25:23;;;;;;;11.00;5.17;;;21.70;99.90;;;;;;5075917;28;20230;-58
2023/06/09 06:27:51;;;;;;;8.83;5.50;;;21.80;99.90;;;;;;5075882;28;20589;-57
2023/06/09 06:30:19;;;;;;;7.47;4.87;;;21.70;99.90;;;;;;5095543;28;20210;-58
2023/06/09 06:32:51;;;;;;;8.77;4.90;;;21.90;99.90;;;;;;5096276;28;20222;-58
2023/06/09 06:35:26;;;;;;;7.30;4.57;;;21.90;99.90;;;;;;5088669;28;20226;-57
2023/06/09 06:37:54;;;;;;;8.00;5.00;;;22.00;99.90;;;;;;5088093;28;20246;-58
2023/06/09 06:40:23;;;;;;;8.27;4.33;;;21.90;99.90;;;;;;5095788;28;20229;-58
2023/06/09 06:42:51;;;;;;;8.60;4.53;;;22.30;99.90;;;;;;5095573;28;20609;-58
2023/06/09 06:45:28;;;;;;;7.33;4.37;;;22.50;99.90;;;;;;5073539;28;20215;-61
2023/06/09 06:47:56;;;;;;;9.00;4.37;;;22.80;99.90;;;;;;5095731;28;20218;-62
2023/06/09 06:50:27;;;;;;;6.90;4.53;;;23.00;99.90;;;;;;5087294;28;20225;-61
2023/06/09 06:52:55;;;;;;;10.00;4.60;;;23.30;99.90;;;;;;5095838;28;20313;-61
2023/06/09 06:55:23;;;;;;;8.20;4.37;;;23.60;99.90;;;;;;5095594;28;20241;-61
2023/06/09 06:57:52;;;;;;;9.57;5.10;;;23.80;99.90;;;;;;5090896;28;20214;-62
2023/06/09 07:00:21;;;;;;;6.87;4.70;;;23.90;99.90;;;;;;5095063;28;20310;-61
2023/06/09 07:02:49;;;;;;;7.60;4.23;;;24.20;99.90;;;;;;5095501;28;20602;-61
2023/06/09 07:05:17;;;;;;;7.13;4.80;;;24.20;99.90;;;;;;5093559;28;20298;-61
2023/06/09 07:07:47;;;;;;;6.73;4.53;;;24.20;99.90;;;;;;5088607;28;20232;-61
2023/06/09 07:10:15;;;;;;;7.83;4.50;;;24.10;99.90;;;;;;5092541;28;20223;-61
2023/06/09 07:12:43;;;;;;;8.07;5.00;;;24.30;99.90;;;;;;5092865;28;20232;-62
2023/06/09 07:15:11;;;;;;;6.37;4.40;;;24.40;99.90;;;;;;5095035;28;20223;-62
2023/06/09 07:17:39;;;;;;;9.43;4.10;;;24.70;99.90;;;;;;5094740;28;20246;-61
2023/06/09 07:20:09;;;;;;;7.73;4.80;;;24.80;99.90;;;;;;5087499;28;20232;-61
2023/06/09 07:22:40;;;;;;;6.30;4.40;;;25.00;99.90;;;;;;5074698;28;20679;-61
2023/06/09 07:25:10;;;;;;;8.83;4.50;;;25.20;99.90;;;;;;5081825;28;20223;-61
2023/06/09 07:27:38;;;;;;;8.73;4.77;;;25.40;99.90;;;;;;5092013;28;20275;-61
2023/06/09 07:30:09;;;;;;;8.37;4.50;;;25.40;99.90;;;;;;5094981;28;20250;-61
2023/06/09 07:32:39;;;;;;;6.97;4.60;;;25.50;99.90;;;;;;5087358;28;20750;-59
2023/06/09 07:35:10;;;;;;;10.33;4.77;;;25.40;99.90;;;;;;5095140;28;20224;-62
2023/06/09 07:37:39;;;;;;;7.73;5.13;;;25.50;99.90;;;;;;5093300;28;20239;-61
2023/06/09 07:40:10;;;;;;;7.97;4.60;;;25.70;99.90;;;;;;5094449;28;20235;-61
2023/06/09 07:42:48;;;;;;;6.93;4.53;;;25.70;99.90;;;;;;5092500;28;20310;-61
2023/06/09 07:45:16;;;;;;;6.93;4.83;;;25.70;99.90;;;;;;5094347;28;20569;-61
2023/06/09 07:47:44;;;;;;;7.77;4.70;;;26.00;99.90;;;;;;5092684;28;20277;-61
2023/06/09 07:50:12;;;;;;;10.00;4.80;;;26.20;99.90;;;;;;5091719;28;20229;-61
2023/06/09 07:52:41;;;;;;;7.43;4.60;;;26.30;99.90;;;;;;5093444;28;20233;-61
2023/06/09 07:55:10;;;;;;;9.40;4.37;;;26.50;99.90;;;;;;5094413;28;20588;-61
2023/06/09 07:57:45;;;;;;;8.33;4.47;;;26.60;99.90;;;;;;5094227;28;20226;-61
2023/06/09 08:00:15;;;;;;;6.97;4.27;;;26.70;99.90;;;;;;5093488;28;20308;-61
2023/06/09 08:02:43;;;;;;;8.87;5.03;;;26.40;99.90;;;;;;5093938;28;20612;-61
2023/06/09 08:05:22;;;;;;;7.53;4.20;;;26.20;99.90;;;;;;5092541;28;20217;-61
2023/06/09 08:07:51;;;;;;;7.87;4.47;;;26.40;99.90;;;;;;5086743;28;20226;-61
2023/06/09 08:10:20;;;;;;;7.63;4.30;;;26.70;99.90;;;;;;5094227;28;20266;-61
2023/06/09 08:12:49;;;;;;;7.90;4.60;;;26.80;99.90;;;;;;5087881;28;20697;-61
2023/06/09 08:15:17;;;;;;;7.27;4.40;;;27.30;99.90;;;;;;5093387;28;20228;-61
2023/06/09 08:17:45;;;;;;;8.70;4.40;;;27.50;99.90;;;;;;5093165;28;20257;-61
2023/06/09 08:20:14;;;;;;;7.90;4.47;;;27.60;99.90;;;;;;5093475;28;20225;-61
2023/06/09 08:22:41;;;;;;;7.97;4.40;;;27.70;99.90;;;;;;5095238;28;20224;-61
2023/06/09 08:25:11;;;;;;;8.87;4.23;;;27.70;99.90;;;;;;5093784;28;20228;-61
2023/06/09 08:27:40;;;;;;;8.80;4.07;;;27.70;99.90;;;;;;5091000;28;20690;-61
2023/06/09 08:30:09;;;;;;;8.97;4.37;;;27.80;99.90;;;;;;5093625;28;20233;-61
2023/06/09 08:32:39;;;;;;;6.53;4.50;;;28.00;99.90;;;;;;5094015;28;20230;-61
2023/06/09 08:35:08;;;;;;;7.83;4.53;;;27.70;99.90;;;;;;5093122;28;20578;-61
2023/06/09 08:37:38;;;;;;;6.70;4.70;;;27.80;99.90;;;;;;5089480;28;20226;-61
2023/06/09 08:40:09;;;;;;;9.77;4.60;;;27.70;99.90;;;;;;5099154;28;20562;-61
2023/06/09 08:42:40;;;;;;;7.87;4.27;;;27.90;99.90;;;;;;5093791;28;20221;-60
2023/06/09 08:45:09;;;;;;;9.50;4.40;;;28.20;99.90;;;;;;5093336;28;20221;-61
2023/06/09 08:47:39;;;;;;;7.97;4.50;;;28.40;99.90;;;;;;5091320;28;20210;-61
2023/06/09 08:50:08;;;;;;;10.03;4.60;;;28.20;99.90;;;;;;5093476;28;20222;-60
2023/06/09 08:52:37;;;;;;;6.53;4.03;;;28.20;99.90;;;;;;5077873;28;20229;-61
2023/06/09 08:55:08;;;;;;;8.60;4.23;;;28.50;99.90;;;;;;5092763;28;20218;-61
2023/06/09 08:57:36;;;;;;;7.37;4.87;;;28.80;99.90;;;;;;5093090;28;20580;-61
2023/06/09 09:00:12;;;;;;;11.63;5.00;;;28.90;99.90;;;;;;5090368;28;20759;-61
2023/06/09 09:02:41;;;;;;;7.47;4.10;;;29.20;99.90;;;;;;5089988;28;20238;-60
2023/06/09 09:05:10;;;;;;;9.20;4.43;;;29.60;99.90;;;;;;5094351;28;20229;-61
2023/06/09 09:07:38;;;;;;;5.80;4.33;;;29.70;98.70;;;;;;5092308;28;20222;-61
2023/06/09 09:10:07;;;;;;;7.97;4.30;;;29.70;98.20;;;;;;5074848;28;20222;-61
2023/06/09 09:12:52;;;;;;;8.87;4.47;;;29.50;98.00;;;;;;5092646;28;20218;-61
2023/06/09 09:15:24;;;;;;;7.40;4.90;;;29.00;97.90;;;;;;5086655;28;20257;-61
2023/06/09 09:17:52;;;;;;;7.33;4.43;;;28.70;97.80;;;;;;5092740;28;20653;-60
2023/06/09 09:20:31;;;;;;;7.73;4.30;;;28.80;97.80;;;;;;5088267;28;20226;-61
2023/06/09 09:22:59;;;;;;;7.10;4.27;;;29.20;97.60;;;;;;5091732;28;20706;-61
2023/06/09 09:25:28;;;;;;;9.00;4.77;;;29.30;96.90;;;;;;5087676;28;20677;-61
2023/06/09 09:28:04;;;;;;;7.47;4.53;;;29.20;96.40;;;;;;5092689;28;20700;-61
2023/06/09 09:30:48;;;;;;;8.37;4.27;;;29.50;97.70;;;;;;5091905;28;20257;-61
2023/06/09 09:33:20;;;;;;;7.50;4.40;;;29.80;97.70;;;;;;5094188;28;20736;-61
2023/06/09 09:35:50;;;;;;;6.93;4.50;;;30.10;96.20;;;;;;5095178;28;20222;-61
2023/06/09 09:38:20;;;;;;;8.70;4.47;;;30.20;94.80;;;;;;5092142;28;20254;-61
2023/06/09 09:40:50;;;;;;;6.23;4.40;;;30.40;95.10;;;;;;5087857;28;20223;-61
2023/06/09 09:43:19;;;;;;;7.17;4.67;;;30.60;95.40;;;;;;5088866;28;20789;-61
2023/06/09 09:45:51;;;;;;;5.43;4.03;;;30.70;94.80;;;;;;5090516;28;20224;-61
2023/06/09 09:48:21;;;;;;;7.53;4.60;;;30.80;92.50;;;;;;5092586;28;20267;-61
2023/06/09 09:50:51;;;;;;;7.00;4.30;;;30.80;92.10;;;;;;5092507;28;20697;-61
2023/06/09 09:53:22;;;;;;;7.83;4.47;;;30.70;93.10;;;;;;5078683;28;20242;-61
2023/06/09 09:55:52;;;;;;;7.70;4.23;;;31.00;91.70;;;;;;5093994;28;20227;-61
2023/06/09 09:58:25;;;;;;;5.60;4.23;;;30.70;90.30;;;;;;5092538;28;20563;-61
2023/06/09 10:00:57;;;;;;;5.90;4.10;;;30.40;90.80;;;;;;5087115;28;20242;-61
2023/06/09 10:03:26;;;;;;;7.17;4.60;;;30.50;92.10;;;;;;5092132;28;20681;-61
2023/06/09 10:05:56;;;;;;;9.43;4.80;;;30.10;91.40;;;;;;5093207;28;20250;-61
2023/06/09 10:08:28;;;;;;;6.37;4.77;;;30.40;91.00;;;;;;5065664;28;20246;-61
2023/06/09 10:10:59;;;;;;;8.20;4.53;;;30.60;91.10;;;;;;5084481;28;20273;-61
2023/06/09 10:13:28;;;;;;;5.50;4.00;;;30.60;90.50;;;;;;5091152;28;20778;-61
2023/06/09 10:16:00;;;;;;;8.13;4.77;;;31.00;90.30;;;;;;5092788;28;20250;-61
2023/06/09 10:18:28;;;;;;;7.20;4.37;;;31.20;89.70;;;;;;5092039;28;20246;-60
2023/06/09 10:20:57;;;;;;;7.87;4.63;;;31.00;90.00;;;;;;5092368;28;20223;-61
2023/06/09 10:23:27;;;;;;;9.50;4.80;;;31.20;90.50;;;;;;5083579;28;20214;-60
2023/06/09 10:25:55;;;;;;;9.50;4.70;;;31.30;87.80;;;;;;5094135;28;20265;-61
2023/06/09 10:28:23;;;;;;;5.57;4.30;;;31.40;86.60;;;;;;5092282;28;20225;-61
2023/06/09 10:30:51;;;;;;;6.17;4.27;;;31.30;84.00;;;;;;5092164;28;20585;-60
2023/06/09 10:33:25;;;;;;;7.93;4.70;;;31.30;89.80;;;;;;5091715;28;20224;-61
2023/06/09 10:35:58;;;;;;;6.17;4.67;;;31.30;88.00;;;;;;5092913;28;20277;-61
2023/06/09 10:38:30;;;;;;;7.83;4.07;;;31.20;85.80;;;;;;5089831;28;20635;-60
2023/06/09 10:41:12;;;;;;;6.40;4.37;;;31.10;85.50;;;;;;5087865;28;20226;-61
2023/06/09 10:44:10;;;;;;;6.77;4.07;;;31.60;85.50;;;;;;5095546;28;20232;-61
2023/06/09 10:46:40;;;;;;;7.07;4.60;;;31.60;81.10;;;;;;5096712;28;20579;-60
2023/06/09 10:49:39;;;;;;;5.90;4.70;;;31.70;82.00;;;;;;5095668;28;20225;-61
2023/06/09 10:52:45;;;;;;;6.30;4.10;;;31.80;80.20;;;;;;5095067;28;20588;-61
2023/06/09 10:55:15;;;;;;;6.87;4.60;;;32.10;80.50;;;;;;5094360;28;20695;-61
2023/06/09 10:57:43;;;;;;;6.73;4.30;;;32.20;78.40;;;;;;5095008;28;20716;-61
2023/06/09 11:00:13;;;;;;;7.30;4.40;;;32.40;80.20;;;;;;5095127;28;20680;-61
2023/06/09 11:02:42;;;;;;;7.10;3.73;;;31.90;78.90;;;;;;5095431;28;20229;-60
2023/06/09 11:05:12;;;;;;;6.13;4.20;;;31.40;77.70;;;;;;5096003;28;20218;-60
2023/06/09 11:07:46;;;;;;;5.80;4.00;;;31.40;77.90;;;;;;5094500;28;20252;-60
2023/06/09 11:10:37;;;;;;;7.33;4.20;;;31.50;76.80;;;;;;5095447;28;20678;-60
2023/06/09 11:13:39;;;;;;;4.90;3.83;;;31.80;76.50;;;;;;5094295;28;20317;-60
2023/06/09 11:16:09;;;;;;;6.07;4.27;;;32.10;77.00;;;;;;5086756;28;20686;-61
2023/06/09 11:18:38;;;;;;;5.93;4.40;;;32.20;72.70;;;;;;5102655;28;20251;-61
2023/06/09 11:21:23;;;;;;;5.47;3.83;;;32.20;74.40;;;;;;5087363;28;20343;-61
2023/06/09 11:24:01;;;;;;;4.97;3.70;;;32.00;72.90;;;;;;5088361;28;20228;-61
2023/06/09 11:26:31;;;;;;;9.57;4.20;;;32.40;74.30;;;;;;5095134;28;20270;-61
2023/06/09 11:29:00;;;;;;;4.97;4.00;;;32.40;72.50;;;;;;5093521;28;20261;-61
2023/06/09 11:31:29;;;;;;;4.70;3.77;;;32.60;72.50;;;;;;5094870;28;20229;-60
2023/06/09 11:33:57;;;;;;;6.30;4.00;;;32.80;70.90;;;;;;5087825;28;20708;-60
2023/06/09 11:36:30;;;;;;;6.80;3.70;;;33.20;75.10;;;;;;5091893;28;20288;-61
2023/06/09 11:39:07;;;;;;;5.77;3.67;;;33.50;71.10;;;;;;5093146;28;20215;-60
2023/06/09 11:41:35;;;;;;;5.00;3.77;;;33.60;70.50;;;;;;5091924;28;20623;-61
2023/06/09 11:44:03;;;;;;;7.23;4.20;;;33.30;69.50;;;;;;5094048;28;20566;-61
2023/06/09 11:46:34;;;;;;;5.10;3.73;;;32.90;70.10;;;;;;5091053;28;20338;-61
2023/06/09 11:49:10;;;;;;;4.30;3.40;;;32.60;67.80;;;;;;5093128;28;20220;-60
2023/06/09 11:52:03;;;;;;;4.33;3.70;;;33.20;68.80;;;;;;5091563;28;20224;-61
2023/06/09 11:54:47;;;;;;;6.17;3.67;;;33.30;69.80;;;;;;5093369;28;20229;-60
2023/06/09 11:57:19;;;;;;;5.37;3.47;;;32.80;66.20;;;;;;5091835;28;20322;-60
2023/06/09 11:59:47;;;;;;;5.90;3.63;;;32.80;65.90;;;;;;5093236;28;20223;-60
2023/06/09 12:02:17;;;;;;;5.40;3.53;;;32.30;67.30;;;;;;5094267;28;20226;-60
2023/06/09 12:04:47;;;;;;;6.20;3.43;;;32.20;65.90;;;;;;5094242;28;20221;-60
2023/06/09 12:07:18;;;;;;;5.07;3.30;;;32.00;67.00;;;;;;5098587;28;20215;-61
2023/06/09 12:09:54;;;;;;;5.50;3.47;;;31.70;69.00;;;;;;5095288;28;20242;-61
2023/06/09 12:12:22;;;;;;;6.63;3.60;;;31.60;69.30;;;;;;5084273;28;20225;-59
2023/06/09 12:14:50;;;;;;;4.73;3.57;;;31.30;68.90;;;;;;5092120;28;20322;-60
2023/06/09 12:17:18;;;;;;;4.27;3.60;;;31.40;72.70;;;;;;5094236;28;20313;-60
2023/06/09 12:19:49;;;;;;;5.90;3.80;;;30.80;68.50;;;;;;5090755;28;20237;-61
2023/06/09 12:22:18;;;;;;;4.03;3.63;;;30.70;69.10;;;;;;5091980;28;20706;-61
2023/06/09 12:24:46;;;;;;;5.60;3.00;;;30.80;70.30;;;;;;5089414;28;20225;-61
2023/06/09 12:27:15;;;;;;;4.70;3.50;;;30.60;64.30;;;;;;5093869;28;20320;-60
2023/06/09 12:29:43;;;;;;;5.53;3.33;;;30.70;67.40;;;;;;5093783;28;20723;-60
2023/06/09 12:32:22;;;;;;;6.40;3.30;;;30.60;65.40;;;;;;5092411;28;20229;-60
2023/06/09 12:34:50;;;;;;;4.37;3.20;;;30.40;65.60;;;;;;5092942;28;20312;-60
2023/06/09 12:37:20;;;;;;;5.10;3.40;;;30.40;64.20;;;;;;5088321;28;20225;-61
2023/06/09 12:39:48;;;;;;;4.90;3.03;;;30.40;65.30;;;;;;5087015;28;20733;-60
2023/06/09 12:42:16;;;;;;;3.97;3.07;;;30.40;63.30;;;;;;5088021;28;20236;-61
2023/06/09 12:44:48;;;;;;;4.33;2.87;;;30.30;63.80;;;;;;5080250;28;20326;-60
2023/06/09 12:47:17;;;;;;;5.63;3.43;;;30.10;64.00;;;;;;5075292;28;20230;-60
2023/06/09 12:49:46;;;;;;;4.17;2.93;;;30.20;62.50;;;;;;5090006;28;20234;-60
2023/06/09 12:52:15;;;;;;;5.33;3.30;;;29.80;65.90;;;;;;5089265;28;20241;-59
2023/06/09 12:54:50;;;;;;;3.43;3.00;;;29.90;66.30;;;;;;5085801;28;20682;-59
2023/06/09 12:57:37;;;;;;;4.87;3.20;;;29.90;62.50;;;;;;5056107;28;20306;-58
2023/06/09 13:00:09;;;;;;;5.10;3.07;;;29.60;61.80;;;;;;5089967;28;20238;-59